Terminal Aerodrome Forecast
Issued by NWS Grand Junction, CO

Home | Current Version | Previous Version | Text Only | Print | Product List | Glossary On
Versions: 1 2 3 4 5 6 7 8 9 10 11 12 13 14 15 16 17 18 19 20 21 22 23 24
357
FTUS45 KGJT 102342
TAFGJT
TAF
KGJT 102342Z 1100/1124 VRB03KT P6SM OVC150
     FM110600 07006KT P6SM -RASN SCT025 OVC050
     FM111000 35005KT 5SM -SN BR SCT025 OVC050
     FM111500 31005KT P6SM VCSH SCT025 OVC100
     FM111800 31005KT P6SM FEW250=

USA.gov is the U.S. government's official web portal to all federal, state and local government web resources and services.